Time;durP1;ratioP1;P1;durP2;ratioP2;P2;SDS_P1;SDS_P2;PMS_P1;PMS_P2;Temp;Humidity;BMP_temperature;BMP_pressure;BME280_temperature;BME280_humidity;BME280_pressure;Samples;Min_cycle;Max_cycle;Signal;HPM_P1;HPM_P2
2022/05/31 00:02:20;;;;;;;;;;;11.30;99.90;;;;;;5003870;28;19930;-79
2022/05/31 00:04:50;;;;;;;;;;;11.40;99.90;;;;;;5004250;28;19940;-79
2022/05/31 00:07:18;;;;;;;;;;;11.40;99.90;;;;;;5004282;28;19932;-79
2022/05/31 00:09:46;;;;;;;;;;;11.30;99.90;;;;;;5002125;28;19944;-79
2022/05/31 00:12:14;;;;;;;;;;;11.40;99.90;;;;;;5002622;28;19929;-79
2022/05/31 00:14:43;;;;;;;;;;;11.40;99.90;;;;;;4984029;28;19937;-80
2022/05/31 00:17:14;;;;;;;;;;;11.40;99.90;;;;;;4984789;28;19937;-79
2022/05/31 00:19:46;;;;;;;;;;;11.40;99.90;;;;;;4999666;28;19926;-79
2022/05/31 00:22:22;;;;;;;;;;;11.40;99.90;;;;;;5003091;28;20402;-80
2022/05/31 00:24:50;;;;;;;;;;;11.30;99.90;;;;;;5003142;28;19937;-79
2022/05/31 00:27:20;;;;;;;;;;;9.90;99.90;;;;;;5003696;28;19926;-79
2022/05/31 00:29:49;;;;;;;;;;;10.70;99.90;;;;;;5005244;28;19933;-79
2022/05/31 00:32:27;;;;;;;;;;;11.50;99.90;;;;;;4985859;28;19934;-79
2022/05/31 00:34:59;;;;;;;;;;;11.40;99.90;;;;;;4997198;28;19926;-80
2022/05/31 00:37:28;;;;;;;;;;;11.80;99.90;;;;;;5036126;28;19929;-79
2022/05/31 00:39:57;;;;;;;;;;;11.40;99.90;;;;;;5005653;28;20059;-80
2022/05/31 00:42:26;;;;;;;;;;;11.50;99.90;;;;;;5036326;28;19936;-80
2022/05/31 00:44:58;;;;;;;;;;;11.50;99.90;;;;;;5011625;28;19926;-79
2022/05/31 00:47:31;;;;;;;;;;;11.50;99.90;;;;;;5005003;28;19949;-80
2022/05/31 00:50:22;;;;;;;;;;;11.90;99.90;;;;;;4989342;28;19930;-80
2022/05/31 00:52:54;;;;;;;;;;;11.50;99.90;;;;;;5007887;28;19930;-80
2022/05/31 00:55:30;;;;;;;;;;;11.40;99.90;;;;;;5023988;28;20150;-80
2022/05/31 00:58:06;;;;;;;;;;;11.10;99.90;;;;;;4989210;28;19936;-80
2022/05/31 01:00:36;;;;;;;;;;;11.60;99.90;;;;;;5005687;28;19932;-80
2022/05/31 01:03:05;;;;;;;;;;;11.80;99.90;;;;;;4989204;28;20665;-80
2022/05/31 01:05:34;;;;;;;;;;;9.70;99.90;;;;;;5023417;28;19925;-80
2022/05/31 01:08:07;;;;;;;;;;;11.50;99.90;;;;;;5006487;28;19933;-80
2022/05/31 01:10:53;;;;;;;;;;;11.40;99.90;;;;;;4989744;28;19925;-80
2022/05/31 01:13:42;;;;;;;;;;;11.40;99.90;;;;;;5033205;28;19936;-81
2022/05/31 01:16:30;;;;;;;;;;;11.50;99.90;;;;;;5005782;28;19930;-79
2022/05/31 01:22:47;;;;;;;;;;;11.40;99.90;;;;;;5024101;28;19929;-82
2022/05/31 01:25:33;;;;;;;;;;;11.40;99.90;;;;;;5006743;28;19936;-82
2022/05/31 01:28:13;;;;;;;;;;;10.90;99.90;;;;;;4974459;28;19940;-82
2022/05/31 01:31:16;;;;;;;;;;;12.30;99.90;;;;;;5005681;28;20190;-81
2022/05/31 01:33:51;;;;;;;;;;;11.40;99.90;;;;;;4978993;28;19932;-81
2022/05/31 01:36:26;;;;;;;;;;;10.80;99.90;;;;;;5016742;28;19954;-81
2022/05/31 01:38:59;;;;;;;;;;;11.20;99.90;;;;;;5006389;28;20328;-80
2022/05/31 01:41:36;;;;;;;;;;;11.40;99.90;;;;;;5040397;28;19929;-81
2022/05/31 01:44:06;;;;;;;;;;;11.20;99.90;;;;;;5012019;28;20051;-81
2022/05/31 01:46:35;;;;;;;;;;;11.80;99.90;;;;;;5005954;28;19930;-81
2022/05/31 01:49:07;;;;;;;;;;;11.20;99.90;;;;;;5007090;28;19935;-81
2022/05/31 01:51:37;;;;;;;;;;;10.90;99.90;;;;;;5008425;28;19941;-81
2022/05/31 01:54:05;;;;;;;;;;;11.00;99.90;;;;;;5007471;28;19926;-81
2022/05/31 01:56:35;;;;;;;;;;;11.00;99.90;;;;;;5007621;28;19936;-82
2022/05/31 01:59:04;;;;;;;;;;;10.90;99.90;;;;;;4991133;28;19932;-81
2022/05/31 02:01:34;;;;;;;;;;;11.00;99.90;;;;;;4991630;28;19932;-81
2022/05/31 02:04:16;;;;;;;;;;;10.90;99.90;;;;;;4991833;28;19925;-80
2022/05/31 02:06:45;;;;;;;;;;;11.20;99.90;;;;;;5040282;28;19929;-80
2022/05/31 02:09:14;;;;;;;;;;;10.90;99.90;;;;;;5023283;28;20426;-81
2022/05/31 02:11:46;;;;;;;;;;;10.90;99.90;;;;;;5003294;28;19926;-81
2022/05/31 02:14:22;;;;;;;;;;;10.90;99.90;;;;;;5017288;28;19926;-80
2022/05/31 02:16:50;;;;;;;;;;;11.00;99.90;;;;;;5006643;28;19932;-81
2022/05/31 02:19:37;;;;;;;;;;;11.00;99.90;;;;;;5004421;28;19926;-80
2022/05/31 02:22:35;;;;;;;;;;;11.00;99.90;;;;;;5006214;28;19936;-81
2022/05/31 02:25:04;;;;;;;;;;;11.10;99.90;;;;;;5008685;28;19925;-80
2022/05/31 02:27:37;;;;;;;;;;;10.90;99.90;;;;;;5012909;28;19913;-81
2022/05/31 02:30:06;;;;;;;;;;;10.90;99.90;;;;;;5007284;28;19936;-81
2022/05/31 02:32:36;;;;;;;;;;;11.00;99.90;;;;;;5009792;28;20278;-80
2022/05/31 02:35:05;;;;;;;;;;;11.00;99.90;;;;;;5007998;28;19957;-81
2022/05/31 02:37:34;;;;;;;;;;;11.00;99.90;;;;;;5040014;28;19925;-80
2022/05/31 02:40:07;;;;;;;;;;;11.00;99.90;;;;;;5022453;28;19932;-80
2022/05/31 02:42:39;;;;;;;;;;;10.90;99.90;;;;;;5006325;28;20528;-80
2022/05/31 02:45:14;;;;;;;;;;;11.00;99.90;;;;;;5002765;28;19987;-81
2022/05/31 02:47:47;;;;;;;;;;;11.00;99.90;;;;;;5003196;28;19933;-81
2022/05/31 02:50:16;;;;;;;;;;;11.30;99.90;;;;;;5003114;28;19932;-81
2022/05/31 02:52:44;;;;;;;;;;;11.10;99.90;;;;;;5000048;28;19930;-81
2022/05/31 02:55:12;;;;;;;;;;;11.00;99.90;;;;;;4983001;28;19926;-80
2022/05/31 02:58:00;;;;;;;;;;;12.10;99.90;;;;;;4638233;28;10000171;-81
2022/05/31 03:01:22;;;;;;;;;;;10.80;99.90;;;;;;4937351;29;19927;-81
2022/05/31 03:04:10;;;;;;;;;;;10.80;99.90;;;;;;4943503;29;20058;-81
2022/05/31 03:07:01;;;;;;;;;;;10.70;99.90;;;;;;4978720;28;19926;-80
2022/05/31 03:09:37;;;;;;;;;;;10.70;99.90;;;;;;4989534;28;20016;-80
2022/05/31 03:12:07;;;;;;;;;;;10.90;99.90;;;;;;4987257;28;20299;-81
2022/05/31 03:14:54;;;;;;;;;;;10.60;99.90;;;;;;5002773;28;19926;-81
2022/05/31 03:17:38;;;;;;;;;;;10.70;99.90;;;;;;5004092;28;19952;-81
2022/05/31 03:20:06;;;;;;;;;;;10.60;99.90;;;;;;5003379;28;19925;-81
2022/05/31 03:22:37;;;;;;;;;;;10.60;99.90;;;;;;5004369;28;19926;-81
2022/05/31 03:25:16;;;;;;;;;;;10.60;99.90;;;;;;5004698;28;19930;-81
2022/05/31 03:27:44;;;;;;;;;;;10.60;99.90;;;;;;5007884;28;19926;-80
2022/05/31 03:30:12;;;;;;;;;;;10.50;99.90;;;;;;5003925;28;20276;-80
2022/05/31 03:32:40;;;;;;;;;;;10.50;99.90;;;;;;4987348;28;19945;-80
2022/05/31 03:35:08;;;;;;;;;;;10.50;99.90;;;;;;5017216;28;19926;-80
2022/05/31 03:37:38;;;;;;;;;;;11.30;99.90;;;;;;5007054;28;19926;-81
2022/05/31 03:43:10;;;;;;;;;;;10.40;99.90;;;;;;5006245;28;19945;-81
2022/05/31 03:45:42;;;;;;;;;;;10.50;99.90;;;;;;5006501;28;19934;-80
2022/05/31 03:48:35;;;;;;;;;;;10.60;99.90;;;;;;5001788;28;20685;-81
2022/05/31 03:51:05;;;;;;;;;;;10.50;99.90;;;;;;5006536;28;20399;-81
2022/05/31 03:53:34;;;;;;;;;;;10.50;99.90;;;;;;5006565;28;19945;-81
2022/05/31 03:56:04;;;;;;;;;;;10.50;99.90;;;;;;5006342;28;19937;-81
2022/05/31 03:58:36;;;;;;;;;;;10.60;99.90;;;;;;5008161;28;19930;-81
2022/05/31 04:01:22;;;;;;;;;;;10.50;99.90;;;;;;4989749;28;20620;-81
2022/05/31 04:03:51;;;;;;;;;;;10.50;99.90;;;;;;5005943;28;20028;-81
2022/05/31 04:06:19;;;;;;;;;;;10.50;99.90;;;;;;5006230;28;19937;-81
2022/05/31 04:08:47;;;;;;;;;;;10.50;99.90;;;;;;5005863;28;19933;-80
2022/05/31 04:11:15;;;;;;;;;;;10.50;99.90;;;;;;5015843;28;19926;-80
2022/05/31 04:13:43;;;;;;;;;;;10.50;99.90;;;;;;5006592;28;20310;-81
2022/05/31 04:16:18;;;;;;;;;;;10.00;99.90;;;;;;5003619;28;20403;-80
2022/05/31 04:19:03;;;;;;;;;;;10.50;99.90;;;;;;4998944;28;19925;-81
2022/05/31 04:21:31;;;;;;;;;;;10.50;99.90;;;;;;5005784;28;19933;-80
2022/05/31 04:23:59;;;;;;;;;;;10.50;99.90;;;;;;5006982;28;19926;-80
2022/05/31 04:26:45;;;;;;;;;;;10.50;99.90;;;;;;4991935;28;20307;-80
2022/05/31 04:29:25;;;;;;;;;;;10.60;99.90;;;;;;4991570;28;19930;-81
2022/05/31 04:32:13;;;;;;;;;;;10.60;99.90;;;;;;5005313;28;20406;-80
2022/05/31 04:34:52;;;;;;;;;;;10.00;99.90;;;;;;5005793;28;19937;-80
2022/05/31 04:37:20;;;;;;;;;;;10.60;99.90;;;;;;5032825;28;20752;-81
2022/05/31 04:40:07;;;;;;;;;;;10.50;99.90;;;;;;5006249;28;19955;-80
2022/05/31 04:42:50;;;;;;;;;;;10.60;99.90;;;;;;5005755;28;20391;-80
2022/05/31 04:45:44;;;;;;;;;;;10.60;99.90;;;;;;4992629;28;19930;-80
2022/05/31 04:48:39;;;;;;;;;;;10.60;99.90;;;;;;5002941;28;20029;-81
2022/05/31 04:51:07;;;;;;;;;;;10.60;99.90;;;;;;5004353;28;19937;-81
2022/05/31 04:53:42;;;;;;;;;;;10.60;99.90;;;;;;4986817;28;19941;-80
2022/05/31 04:56:44;;;;;;;;;;;10.60;99.90;;;;;;4980887;28;20328;-80
2022/05/31 04:59:12;;;;;;;;;;;10.40;99.90;;;;;;4987500;28;19933;-80
2022/05/31 05:01:41;;;;;;;;;;;10.60;99.90;;;;;;4980034;28;19930;-80
2022/05/31 05:04:29;;;;;;;;;;;10.60;99.90;;;;;;4619827;28;10000006;-81
2022/05/31 05:06:58;;;;;;;;;;;10.60;99.90;;;;;;4987205;28;20293;-80
2022/05/31 05:09:25;;;;;;;;;;;10.60;99.90;;;;;;5006109;28;19930;-80
2022/05/31 05:12:12;;;;;;;;;;;10.60;99.90;;;;;;5005029;28;19930;-81
2022/05/31 05:14:47;;;;;;;;;;;10.50;99.90;;;;;;4988388;28;19934;-81
2022/05/31 05:17:22;;;;;;;;;;;11.20;99.90;;;;;;5004163;28;19937;-80
2022/05/31 05:19:52;;;;;;;;;;;10.60;99.90;;;;;;4988800;28;19952;-80
2022/05/31 05:22:20;;;;;;;;;;;10.60;99.90;;;;;;4988548;28;19936;-80
2022/05/31 05:24:49;;;;;;;;;;;10.70;99.90;;;;;;4986629;28;19929;-80
2022/05/31 05:27:39;;;;;;;;;;;10.70;99.90;;;;;;5003835;28;19931;-80
2022/05/31 05:30:39;;;;;;;;;;;10.70;99.90;;;;;;4985171;28;20383;-80
2022/05/31 05:33:35;;;;;;;;;;;10.70;99.90;;;;;;4973400;28;20435;-81
2022/05/31 05:36:14;;;;;;;;;;;11.40;99.90;;;;;;4997494;28;19935;-80
2022/05/31 05:38:42;;;;;;;;;;;10.60;99.90;;;;;;5006126;28;20000;-80
2022/05/31 05:41:33;;;;;;;;;;;10.70;99.90;;;;;;4988607;28;19925;-80
2022/05/31 05:44:21;;;;;;;;;;;10.10;99.90;;;;;;5005845;28;19930;-80
2022/05/31 05:46:52;;;;;;;;;;;10.80;99.90;;;;;;5005278;28;19933;-80
2022/05/31 05:49:21;;;;;;;;;;;10.80;99.90;;;;;;5022880;28;20605;-80
2022/05/31 05:51:49;;;;;;;;;;;10.80;99.90;;;;;;5006049;28;19931;-80
2022/05/31 05:54:46;;;;;;;;;;;10.80;99.90;;;;;;5022878;28;19929;-80
2022/05/31 05:57:47;;;;;;;;;;;10.90;99.90;;;;;;5010219;28;19929;-80
2022/05/31 06:00:46;;;;;;;;;;;10.90;99.90;;;;;;5006008;28;19929;-80
2022/05/31 06:03:17;;;;;;;;;;;11.00;99.90;;;;;;4994632;28;19930;-81
2022/05/31 06:05:56;;;;;;;;;;;11.10;99.90;;;;;;4985729;28;19936;-80
2022/05/31 06:08:29;;;;;;;;;;;11.00;99.90;;;;;;4984870;28;20010;-80
2022/05/31 06:11:16;;;;;;;;;;;11.10;99.90;;;;;;4985644;28;20355;-80
2022/05/31 06:13:49;;;;;;;;;;;11.10;99.90;;;;;;5002130;28;19926;-81
2022/05/31 06:16:19;;;;;;;;;;;11.10;99.90;;;;;;5001022;28;19929;-80
2022/05/31 06:18:51;;;;;;;;;;;11.20;99.90;;;;;;5004707;28;20151;-81
2022/05/31 06:21:21;;;;;;;;;;;11.20;99.90;;;;;;5004709;28;19929;-80
2022/05/31 06:23:52;;;;;;;;;;;11.30;99.90;;;;;;5004915;28;20530;-80
2022/05/31 06:26:20;;;;;;;;;;;11.30;99.90;;;;;;4988106;28;19930;-81
2022/05/31 06:29:00;;;;;;;;;;;11.40;99.90;;;;;;5005426;28;19929;-81
2022/05/31 06:31:28;;;;;;;;;;;11.40;99.90;;;;;;4986950;28;19929;-81
2022/05/31 06:33:57;;;;;;;;;;;10.40;99.90;;;;;;5004271;28;19932;-80
2022/05/31 06:36:45;;;;;;;;;;;11.10;99.90;;;;;;4989600;28;19936;-81
2022/05/31 06:39:13;;;;;;;;;;;11.50;99.90;;;;;;4997421;28;20325;-80
2022/05/31 06:41:41;;;;;;;;;;;11.50;99.90;;;;;;5003653;28;19936;-81
2022/05/31 06:44:34;;;;;;;;;;;11.60;99.90;;;;;;5015072;28;19932;-79
2022/05/31 06:47:21;;;;;;;;;;;11.60;99.90;;;;;;5017613;28;19940;-80
2022/05/31 06:50:15;;;;;;;;;;;11.60;99.90;;;;;;5001453;28;20380;-81
2022/05/31 06:59:09;;;;;;;;;;;11.80;99.90;;;;;;5006538;28;19930;-80
2022/05/31 07:01:39;;;;;;;;;;;11.80;99.90;;;;;;4985631;28;19926;-81
2022/05/31 07:04:07;;;;;;;;;;;11.90;99.90;;;;;;4987625;28;20419;-80
2022/05/31 07:06:36;;;;;;;;;;;12.00;99.90;;;;;;5021826;28;19936;-80
2022/05/31 07:09:37;;;;;;;;;;;12.50;99.90;;;;;;5020295;28;19929;-81
2022/05/31 07:12:17;;;;;;;;;;;11.10;99.90;;;;;;5000680;28;19929;-80
2022/05/31 07:15:05;;;;;;;;;;;12.30;99.90;;;;;;5004022;28;19925;-82
2022/05/31 07:17:49;;;;;;;;;;;12.50;99.90;;;;;;5022302;28;19933;-80
2022/05/31 07:20:24;;;;;;;;;;;12.70;99.90;;;;;;4984409;28;19926;-80
2022/05/31 07:22:54;;;;;;;;;;;12.70;99.90;;;;;;5003628;28;19940;-81
2022/05/31 07:25:34;;;;;;;;;;;12.80;99.90;;;;;;5002896;28;19930;-82
2022/05/31 07:28:07;;;;;;;;;;;13.00;99.90;;;;;;5003989;28;19936;-77
2022/05/31 07:30:36;;;;;;;;;;;13.10;99.90;;;;;;5000627;28;19930;-81
2022/05/31 07:33:14;;;;;;;;;;;13.20;99.90;;;;;;5002274;28;19929;-80
2022/05/31 07:36:07;;;;;;;;;;;13.40;99.90;;;;;;4987798;28;19930;-80
2022/05/31 07:39:08;;;;;;;;;;;13.90;99.90;;;;;;5022028;28;19930;-79
2022/05/31 07:41:37;;;;;;;;;;;13.60;99.90;;;;;;5003758;28;19926;-81
2022/05/31 07:44:05;;;;;;;;;;;13.50;99.90;;;;;;5002118;28;19929;-80
2022/05/31 07:46:38;;;;;;;;;;;13.90;99.90;;;;;;4999435;28;19935;-81
2022/05/31 07:49:06;;;;;;;;;;;14.10;99.90;;;;;;4996260;28;19925;-81
2022/05/31 07:51:52;;;;;;;;;;;14.20;99.90;;;;;;5001811;28;19925;-81
2022/05/31 07:54:30;;;;;;;;;;;13.40;99.90;;;;;;5002096;28;20483;-81
2022/05/31 08:00:28;;;;;;;;;;;14.40;99.90;;;;;;5020441;28;19929;-81
2022/05/31 08:02:57;;;;;;;;;;;13.70;99.90;;;;;;5002101;28;20410;-81
2022/05/31 08:05:26;;;;;;;;;;;14.50;99.90;;;;;;4997582;28;19933;-81
2022/05/31 08:07:54;;;;;;;;;;;13.00;99.90;;;;;;4997598;28;19945;-81
2022/05/31 08:10:43;;;;;;;;;;;14.00;99.90;;;;;;5004921;28;19933;-81
2022/05/31 08:13:14;;;;;;;;;;;14.50;99.90;;;;;;5023318;28;19929;-81
2022/05/31 08:15:56;;;;;;;;;;;14.50;99.90;;;;;;5003826;28;19941;-81
2022/05/31 08:18:25;;;;;;;;;;;14.60;99.90;;;;;;5018007;28;19945;-81
2022/05/31 08:21:07;;;;;;;;;;;14.60;99.30;;;;;;4974509;28;19925;-82
2022/05/31 08:23:39;;;;;;;;;;;14.60;99.80;;;;;;5022993;28;19934;-82
2022/05/31 08:26:08;;;;;;;;;;;13.80;99.30;;;;;;5004159;28;19945;-81
2022/05/31 08:28:37;;;;;;;;;;;14.80;99.40;;;;;;5020970;28;19956;-81
2022/05/31 08:31:06;;;;;;;;;;;14.80;99.20;;;;;;5002956;28;19930;-80
2022/05/31 08:33:34;;;;;;;;;;;14.80;99.30;;;;;;5000451;28;19929;-84
2022/05/31 08:36:03;;;;;;;;;;;13.20;99.30;;;;;;5002070;28;20148;-82
2022/05/31 08:38:40;;;;;;;;;;;14.90;99.20;;;;;;5002624;28;20408;-81
2022/05/31 08:41:20;;;;;;;;;;;15.00;99.30;;;;;;5019330;28;19933;-80
2022/05/31 08:43:57;;;;;;;;;;;14.90;99.10;;;;;;5022640;28;19933;-80
2022/05/31 08:46:32;;;;;;;;;;;15.00;99.10;;;;;;4984662;28;20442;-80
2022/05/31 08:49:11;;;;;;;;;;;14.90;98.40;;;;;;4983845;28;19941;-81
2022/05/31 08:51:55;;;;;;;;;;;14.30;98.40;;;;;;5016967;28;19934;-80
2022/05/31 08:57:36;;;;;;;;;;;15.20;98.30;;;;;;5000987;28;19940;-83
2022/05/31 09:00:16;;;;;;;;;;;15.00;98.10;;;;;;4984566;28;19925;-81
2022/05/31 09:02:51;;;;;;;;;;;14.60;97.70;;;;;;5001005;28;19925;-82
2022/05/31 09:05:29;;;;;;;;;;;14.90;98.20;;;;;;4998291;28;19941;-81
2022/05/31 09:07:57;;;;;;;;;;;14.80;97.80;;;;;;4999851;28;19934;-81
2022/05/31 09:10:40;;;;;;;;;;;14.90;98.10;;;;;;5001835;28;19941;-81
2022/05/31 09:13:29;;;;;;;;;;;15.10;97.60;;;;;;4992266;28;19926;-82
2022/05/31 09:16:00;;;;;;;;;;;15.00;97.60;;;;;;5000490;28;19937;-81
2022/05/31 09:18:40;;;;;;;;;;;15.10;97.20;;;;;;4999657;28;19925;-82
2022/05/31 09:21:30;;;;;;;;;;;15.10;97.10;;;;;;5015666;28;19926;-81
2022/05/31 09:24:02;;;;;;;;;;;15.20;95.90;;;;;;5008054;28;19937;-81
2022/05/31 09:26:40;;;;;;;;;;;13.60;95.80;;;;;;4985151;28;19929;-80
2022/05/31 09:29:16;;;;;;;;;;;15.10;95.70;;;;;;4985025;28;20442;-81
2022/05/31 09:31:44;;;;;;;;;;;15.10;95.10;;;;;;5008704;28;19944;-81
2022/05/31 09:34:22;;;;;;;;;;;15.20;95.60;;;;;;4999015;28;20292;-80
2022/05/31 09:37:00;;;;;;;;;;;16.00;95.30;;;;;;4996165;28;19930;-81
2022/05/31 09:39:48;;;;;;;;;;;15.50;94.90;;;;;;4983535;28;19926;-82
2022/05/31 09:42:27;;;;;;;;;;;15.70;94.80;;;;;;4995304;28;19925;-81
2022/05/31 09:45:13;;;;;;;;;;;15.80;94.10;;;;;;5006954;28;19936;-81
2022/05/31 09:47:42;;;;;;;;;;;16.00;93.40;;;;;;5018234;28;19934;-81
2022/05/31 09:50:12;;;;;;;;;;;16.10;93.70;;;;;;4656704;28;10000404;-81
2022/05/31 09:52:47;;;;;;;;;;;16.20;93.30;;;;;;4988992;28;19929;-81
2022/05/31 09:58:22;;;;;;;;;;;16.40;93.00;;;;;;5020453;28;19929;-81
2022/05/31 10:01:14;;;;;;;;;;;16.30;93.00;;;;;;5021641;28;19936;-81
2022/05/31 10:04:00;;;;;;;;;;;16.10;92.30;;;;;;5003978;28;19933;-81
2022/05/31 10:06:30;;;;;;;;;;;15.90;92.50;;;;;;5020619;28;19925;-81
2022/05/31 10:09:15;;;;;;;;;;;16.20;93.00;;;;;;4972284;28;19929;-81
2022/05/31 10:11:48;;;;;;;;;;;16.30;92.40;;;;;;5019927;28;19934;-81
2022/05/31 10:14:30;;;;;;;;;;;16.40;92.80;;;;;;4990948;28;20302;-80
2022/05/31 10:17:15;;;;;;;;;;;16.70;92.10;;;;;;5000188;28;19934;-81
2022/05/31 10:19:43;;;;;;;;;;;16.70;92.00;;;;;;5000076;28;19933;-81
2022/05/31 10:22:18;;;;;;;;;;;16.80;92.20;;;;;;5018803;28;19925;-81
2022/05/31 10:25:23;;;;;;;;;;;16.80;91.90;;;;;;5016524;28;19933;-81
2022/05/31 10:28:21;;;;;;;;;;;16.70;91.70;;;;;;5017809;28;20381;-81
2022/05/31 10:31:15;;;;;;;;;;;16.70;92.20;;;;;;5018157;28;19934;-81
2022/05/31 10:33:52;;;;;;;;;;;16.60;92.40;;;;;;4943404;23;3230734;-91
2022/05/31 10:36:28;;;;;;;;;;;16.60;92.40;;;;;;5028845;28;19925;-91
2022/05/31 10:39:22;;;;;;;;;;;16.40;92.50;;;;;;5022529;28;20584;-90
2022/05/31 10:41:54;;;;;;;;;;;16.60;92.90;;;;;;5023806;28;19951;-91
2022/05/31 10:44:32;;;;;;;;;;;16.90;92.40;;;;;;5039900;28;20288;-90
2022/05/31 10:47:29;;;;;;;;;;;17.00;92.10;;;;;;5012826;28;19975;-90
2022/05/31 10:50:01;;;;;;;;;;;17.20;91.90;;;;;;5006194;28;19925;-92
2022/05/31 10:52:41;;;;;;;;;;;17.40;91.40;;;;;;5036218;28;19925;-92
2022/05/31 10:55:18;;;;;;;;;;;17.40;91.00;;;;;;5027224;28;19935;-92
2022/05/31 10:58:05;;;;;;;;;;;17.50;90.60;;;;;;5035978;28;19940;-93
2022/05/31 11:00:55;;;;;;;;;;;17.60;90.90;;;;;;5016300;28;20031;-92
2022/05/31 11:03:46;;;;;;;;;;;17.70;90.40;;;;;;5022518;28;19924;-92
2022/05/31 11:06:33;;;;;;;;;;;17.70;87.80;;;;;;5030432;28;19931;-93
2022/05/31 11:12:56;;;;;;;;;;;17.50;91.00;;;;;;5023392;28;19940;-92
2022/05/31 11:15:37;;;;;;;;;;;17.40;91.30;;;;;;5014650;28;19928;-92
2022/05/31 11:18:24;;;;;;;;;;;16.10;91.10;;;;;;5000048;28;19924;-91
2022/05/31 11:20:58;;;;;;;;;;;17.40;91.50;;;;;;5022692;28;20509;-92
2022/05/31 11:27:26;;;;;;;;;;;17.80;91.30;;;;;;5053233;28;19925;-92
2022/05/31 11:30:17;;;;;;;;;;;17.90;90.90;;;;;;5040427;22;19933;-76
2022/05/31 11:33:04;;;;;;;;;;;18.10;90.60;;;;;;5010308;28;19933;-78
2022/05/31 11:35:46;;;;;;;;;;;18.30;90.30;;;;;;5027664;28;19932;-80
2022/05/31 11:38:48;;;;;;;;;;;18.60;88.10;;;;;;5012614;28;20013;-82
2022/05/31 11:41:33;;;;;;;;;;;18.70;84.60;;;;;;4987519;28;19933;-84
2022/05/31 11:44:14;;;;;;;;;;;18.90;86.30;;;;;;5030001;28;19936;-88
2022/05/31 11:46:56;;;;;;;;;;;18.90;84.20;;;;;;5021354;28;20416;-82
2022/05/31 11:49:25;;;;;;;;;;;18.80;84.00;;;;;;5034133;28;19933;-83
2022/05/31 11:51:53;;;;;;;;;;;18.50;84.70;;;;;;5019142;28;19941;-85
2022/05/31 11:54:41;;;;;;;;;;;18.30;88.70;;;;;;5017344;28;19929;-84
2022/05/31 11:57:20;;;;;;;;;;;17.60;91.10;;;;;;5020297;28;19940;-82
2022/05/31 12:00:01;;;;;;;;;;;17.00;91.80;;;;;;4990737;28;19940;-81
2022/05/31 12:02:40;;;;;;;;;;;16.60;92.60;;;;;;5020967;28;19933;-79
2022/05/31 12:05:18;;;;;;;;;;;16.10;93.60;;;;;;5017465;28;19937;-80
2022/05/31 12:07:56;;;;;;;;;;;15.70;94.90;;;;;;5034478;28;19934;-83
2022/05/31 12:10:30;;;;;;;;;;;15.30;95.70;;;;;;5032380;28;20191;-83
2022/05/31 12:13:09;;;;;;;;;;;14.90;96.30;;;;;;5022116;28;19933;-82
2022/05/31 12:15:52;;;;;;;;;;;14.60;96.50;;;;;;5012530;28;19940;-85
2022/05/31 12:19:02;;;;;;;;;;;13.80;97.30;;;;;;4993240;28;19933;-83
2022/05/31 12:21:40;;;;;;;;;;;14.80;97.70;;;;;;5030808;28;19934;-83
2022/05/31 12:24:23;;;;;;;;;;;14.50;98.20;;;;;;5035346;28;19930;-85
2022/05/31 12:27:01;;;;;;;;;;;15.10;98.00;;;;;;5034786;28;19969;-82
2022/05/31 12:29:33;;;;;;;;;;;15.00;98.10;;;;;;5038287;28;19932;-82
2022/05/31 12:34:58;;;;;;;;;;;15.40;97.70;;;;;;4958924;28;19926;-84
2022/05/31 12:37:49;;;;;;;;;;;15.60;97.60;;;;;;4980330;28;19938;-83
2022/05/31 12:40:27;;;;;;;;;;;16.40;96.90;;;;;;4961431;28;19930;-85
2022/05/31 12:42:57;;;;;;;;;;;15.90;95.60;;;;;;4977050;28;19934;-82
2022/05/31 12:45:34;;;;;;;;;;;16.60;96.20;;;;;;4614965;28;10000450;-83
2022/05/31 12:48:12;;;;;;;;;;;15.70;96.20;;;;;;4961726;28;20367;-81
2022/05/31 12:50:46;;;;;;;;;;;15.70;96.40;;;;;;4977447;28;19934;-81
2022/05/31 12:53:23;;;;;;;;;;;15.10;97.10;;;;;;4965591;28;19934;-85
2022/05/31 12:56:01;;;;;;;;;;;15.60;98.50;;;;;;4936540;28;19934;-83
2022/05/31 12:58:30;;;;;;;;;;;15.30;98.50;;;;;;4960992;28;19934;-82
2022/05/31 13:00:59;;;;;;;;;;;15.30;98.80;;;;;;4963356;28;19934;-83
2022/05/31 13:03:34;;;;;;;;;;;15.20;98.80;;;;;;4981697;28;20702;-83
2022/05/31 13:06:09;;;;;;;;;;;16.10;99.20;;;;;;4966577;28;19930;-85
2022/05/31 13:08:52;;;;;;;;;;;15.30;99.80;;;;;;4976579;28;19998;-84
2022/05/31 13:20:32;;;;;;;;;;;17.10;99.00;;;;;;4957650;28;19933;-80
2022/05/31 13:23:23;;;;;;;;;;;16.40;98.80;;;;;;4974309;28;19931;-81
2022/05/31 13:25:57;;;;;;;;;;;16.80;98.20;;;;;;4975541;28;19927;-82
2022/05/31 13:28:32;;;;;;;;;;;17.10;97.50;;;;;;4971608;28;19945;-82
2022/05/31 13:31:09;;;;;;;;;;;17.30;97.00;;;;;;4978038;28;19937;-82
2022/05/31 13:33:38;;;;;;;;;;;18.10;97.00;;;;;;4974905;28;19935;-81
2022/05/31 13:36:14;;;;;;;;;;;17.50;96.60;;;;;;4976606;28;19930;-81
2022/05/31 13:38:47;;;;;;;;;;;17.50;97.30;;;;;;4957991;28;19934;-81
2022/05/31 13:41:18;;;;;;;;;;;17.70;96.50;;;;;;4958108;28;20774;-83
2022/05/31 13:43:51;;;;;;;;;;;17.90;96.50;;;;;;4954105;28;19945;-82
2022/05/31 13:46:25;;;;;;;;;;;18.20;96.10;;;;;;4958324;28;19927;-83
2022/05/31 13:49:16;;;;;;;;;;;18.60;96.30;;;;;;4959920;28;19930;-81
2022/05/31 13:51:48;;;;;;;;;;;19.20;95.80;;;;;;4958720;28;19930;-81
2022/05/31 13:54:17;;;;;;;;;;;19.80;94.70;;;;;;4976040;28;19937;-81
2022/05/31 13:56:47;;;;;;;;;;;20.00;93.10;;;;;;4941974;28;19926;-83
2022/05/31 13:59:37;;;;;;;;;;;18.80;93.00;;;;;;4959122;28;19927;-81
2022/05/31 14:02:26;;;;;;;;;;;20.20;93.40;;;;;;4974827;28;19935;-82
2022/05/31 14:05:03;;;;;;;;;;;20.10;93.10;;;;;;4973385;28;19926;-83
2022/05/31 14:07:32;;;;;;;;;;;19.80;92.80;;;;;;4956215;28;19944;-80
2022/05/31 14:10:01;;;;;;;;;;;19.30;92.10;;;;;;4961162;28;20655;-82
2022/05/31 14:12:31;;;;;;;;;;;18.90;92.60;;;;;;4966427;28;19941;-83
2022/05/31 14:15:01;;;;;;;;;;;18.40;92.10;;;;;;4966819;28;19934;-81
2022/05/31 14:17:32;;;;;;;;;;;19.00;93.50;;;;;;4944966;28;19942;-82
2022/05/31 14:20:28;;;;;;;;;;;17.60;93.20;;;;;;4960525;28;19945;-85
2022/05/31 14:23:02;;;;;;;;;;;17.30;94.60;;;;;;4959078;28;19927;-80
2022/05/31 14:25:31;;;;;;;;;;;17.00;94.70;;;;;;4945934;28;20014;-82
2022/05/31 14:28:02;;;;;;;;;;;16.50;94.80;;;;;;4957340;28;19937;-81
2022/05/31 14:30:33;;;;;;;;;;;15.70;95.90;;;;;;4962550;28;19945;-81
2022/05/31 14:33:11;;;;;;;;;;;14.80;97.50;;;;;;5022228;23;19932;-80
2022/05/31 14:35:44;;;;;;;;;;;14.30;99.30;;;;;;5003635;28;19929;-81
2022/05/31 14:38:23;;;;;;;;;;;13.90;99.70;;;;;;4992450;28;20377;-81
2022/05/31 14:40:57;;;;;;;;;;;13.70;99.90;;;;;;4996126;28;19929;-82
2022/05/31 14:43:35;;;;;;;;;;;13.60;99.90;;;;;;5033112;28;19925;-82
2022/05/31 14:46:05;;;;;;;;;;;13.90;99.90;;;;;;5002655;28;19929;-82
2022/05/31 14:48:35;;;;;;;;;;;14.00;99.90;;;;;;4654156;28;10000006;-80
2022/05/31 14:51:09;;;;;;;;;;;14.30;99.90;;;;;;5036550;28;19929;-82
2022/05/31 14:53:40;;;;;;;;;;;14.60;99.90;;;;;;5021536;28;19933;-80
2022/05/31 14:56:18;;;;;;;;;;;14.70;99.90;;;;;;5020999;28;19929;-80
2022/05/31 14:58:50;;;;;;;;;;;14.80;99.90;;;;;;5019123;28;19925;-82
2022/05/31 15:01:38;;;;;;;;;;;15.10;99.90;;;;;;5018637;28;19937;-81
2022/05/31 15:04:43;;;;;;;;;;;15.70;99.90;;;;;;5021152;28;20654;-81
2022/05/31 15:07:13;;;;;;;;;;;16.50;99.90;;;;;;5038369;28;19936;-82
2022/05/31 15:09:42;;;;;;;;;;;17.00;99.10;;;;;;5005972;28;19933;-82
2022/05/31 15:20:50;;;;;;;;;;;17.20;97.90;;;;;;5042096;28;19936;-81
2022/05/31 15:23:43;;;;;;;;;;;17.00;97.30;;;;;;4999260;28;19928;-82
2022/05/31 15:26:15;;;;;;;;;;;16.60;97.50;;;;;;5009785;28;19933;-82
2022/05/31 15:28:44;;;;;;;;;;;16.20;97.50;;;;;;5009826;28;19925;-80
2022/05/31 15:31:35;;;;;;;;;;;15.90;98.20;;;;;;5003378;28;19926;-81
2022/05/31 15:34:22;;;;;;;;;;;15.60;99.10;;;;;;5020443;28;19925;-83
2022/05/31 15:36:51;;;;;;;;;;;15.40;99.70;;;;;;5022908;28;20203;-81
2022/05/31 15:39:19;;;;;;;;;;;14.80;99.70;;;;;;5021861;28;19937;-80
2022/05/31 15:41:46;;;;;;;;;;;15.30;99.90;;;;;;5003003;28;19941;-81
2022/05/31 15:44:14;;;;;;;;;;;15.40;99.90;;;;;;5001761;28;19926;-82
2022/05/31 15:46:42;;;;;;;;;;;15.60;99.90;;;;;;4985685;28;19933;-82
2022/05/31 15:49:12;;;;;;;;;;;15.90;99.90;;;;;;5012302;28;19991;-81
2022/05/31 15:51:41;;;;;;;;;;;16.60;99.90;;;;;;5021706;28;19934;-81
2022/05/31 15:54:11;;;;;;;;;;;17.30;99.60;;;;;;5005885;28;19939;-82
2022/05/31 15:56:40;;;;;;;;;;;18.60;98.40;;;;;;5007224;28;19925;-82
2022/05/31 15:59:08;;;;;;;;;;;18.20;97.50;;;;;;5006416;28;19925;-83
2022/05/31 16:01:41;;;;;;;;;;;18.40;97.20;;;;;;4991288;28;20205;-82
2022/05/31 16:04:09;;;;;;;;;;;17.00;97.10;;;;;;5025139;28;19925;-82